Time;durP1;ratioP1;P1;durP2;ratioP2;P2;SDS_P1;SDS_P2;PMS_P1;PMS_P2;Temp;Humidity;BMP_temperature;BMP_pressure;BME280_temperature;BME280_humidity;BME280_pressure;Samples;Min_cycle;Max_cycle;Signal;HPM_P1;HPM_P2
2023/12/04 00:00:48;;;;;;;65.07;33.55;;;-2.40;99.90;;;;;;2100497;28;20119;-88
2023/12/04 00:01:49;;;;;;;67.30;34.40;;;-2.40;99.90;;;;;;2100009;28;20030;-86
2023/12/04 00:02:49;;;;;;;69.60;35.38;;;-2.40;99.90;;;;;;2099107;28;20023;-86
2023/12/04 00:03:50;;;;;;;65.80;32.83;;;-2.40;99.90;;;;;;2101149;28;20053;-87
2023/12/04 00:04:51;;;;;;;63.10;32.35;;;-2.40;99.90;;;;;;2098039;28;20495;-87
2023/12/04 00:05:51;;;;;;;67.07;34.25;;;-2.40;99.90;;;;;;2103405;28;20528;-86
2023/12/04 00:06:52;;;;;;;63.97;33.15;;;-2.40;99.90;;;;;;2100041;28;20248;-87
2023/12/04 00:07:52;;;;;;;65.57;33.35;;;-2.40;99.90;;;;;;2099943;28;20036;-85
2023/12/04 00:08:53;;;;;;;65.30;33.15;;;-2.40;99.90;;;;;;2099917;28;20032;-86
2023/12/04 00:09:53;;;;;;;63.95;32.60;;;-2.40;99.90;;;;;;2091219;28;20086;-89
2023/12/04 00:10:54;;;;;;;65.07;33.58;;;-2.50;99.90;;;;;;2093192;28;20561;-87
2023/12/04 00:11:54;;;;;;;63.50;32.28;;;-2.50;99.90;;;;;;2101694;28;20024;-88
2023/12/04 00:12:55;;;;;;;63.20;32.60;;;-2.50;99.90;;;;;;2103468;28;20438;-87
2023/12/04 00:13:55;;;;;;;63.88;33.15;;;-2.50;99.90;;;;;;2101721;28;20089;-88
2023/12/04 00:14:56;;;;;;;68.20;33.92;;;-2.50;99.90;;;;;;2102279;28;20549;-86
2023/12/04 00:15:56;;;;;;;65.82;34.45;;;-2.50;99.90;;;;;;2094151;28;20385;-87
2023/12/04 00:16:57;;;;;;;66.07;34.25;;;-2.50;99.90;;;;;;2093367;28;20179;-87
2023/12/04 00:17:58;;;;;;;61.65;32.72;;;-2.50;99.90;;;;;;2093141;28;20029;-86
2023/12/04 00:18:58;;;;;;;65.20;33.72;;;-2.50;99.90;;;;;;2103551;28;20036;-85
2023/12/04 00:19:59;;;;;;;65.55;33.95;;;-2.50;99.90;;;;;;2099388;28;20040;-86
2023/12/04 00:20:59;;;;;;;68.65;34.13;;;-2.50;99.90;;;;;;2096507;28;20040;-86
2023/12/04 00:22:00;;;;;;;63.90;32.78;;;-2.50;99.90;;;;;;2102063;28;20032;-87
2023/12/04 00:23:00;;;;;;;61.33;32.17;;;-2.50;99.90;;;;;;2093231;28;20024;-89
2023/12/04 00:24:01;;;;;;;65.20;33.80;;;-2.50;99.90;;;;;;2093768;28;20033;-89
2023/12/04 00:25:03;;;;;;;64.07;33.65;;;-2.60;99.90;;;;;;2103573;28;20027;-88
2023/12/04 00:26:04;;;;;;;64.78;33.88;;;-2.60;99.90;;;;;;2098922;28;20088;-87
2023/12/04 00:27:04;;;;;;;66.35;34.03;;;-2.60;99.90;;;;;;2106525;28;20028;-87
2023/12/04 00:28:05;;;;;;;65.22;33.42;;;-2.60;99.90;;;;;;2103133;28;20020;-86
2023/12/04 00:29:05;;;;;;;63.03;32.17;;;-2.60;99.90;;;;;;2100971;28;20394;-87
2023/12/04 00:30:07;;;;;;;62.78;32.95;;;-2.60;99.90;;;;;;2103017;28;20031;-86
2023/12/04 00:31:10;;;;;;;62.50;32.85;;;-2.60;99.90;;;;;;2096913;28;20046;-88
2023/12/04 00:32:10;;;;;;;64.07;32.88;;;-2.60;99.90;;;;;;2097668;28;20020;-87
2023/12/04 00:33:11;;;;;;;62.30;32.15;;;-2.60;99.90;;;;;;2101200;28;20055;-86
2023/12/04 00:34:12;;;;;;;65.20;33.47;;;-2.60;99.90;;;;;;2094347;28;20032;-87
2023/12/04 00:35:13;;;;;;;60.65;31.58;;;-2.60;99.90;;;;;;2100244;28;20024;-87
2023/12/04 00:36:14;;;;;;;62.97;31.77;;;-2.60;99.90;;;;;;2098319;28;20028;-88
2023/12/04 00:37:14;;;;;;;64.32;32.55;;;-2.60;99.90;;;;;;2099900;28;20088;-88
2023/12/04 00:38:15;;;;;;;58.25;31.77;;;-2.60;99.90;;;;;;2103608;28;20050;-88
2023/12/04 00:39:15;;;;;;;62.08;31.55;;;-2.60;99.90;;;;;;2100218;28;20077;-88
2023/12/04 00:40:16;;;;;;;61.28;30.95;;;-2.60;99.90;;;;;;2095303;28;20031;-67
2023/12/04 00:41:17;;;;;;;57.72;30.80;;;-2.70;99.90;;;;;;2096302;28;20043;-67
2023/12/04 00:42:17;;;;;;;59.88;31.00;;;-2.60;99.90;;;;;;2093465;28;20976;-68
2023/12/04 00:43:18;;;;;;;58.30;29.55;;;-2.60;99.90;;;;;;2095256;28;20043;-67
2023/12/04 00:44:18;;;;;;;63.10;31.25;;;-2.60;99.90;;;;;;2097553;28;20474;-67
2023/12/04 00:45:19;;;;;;;65.57;32.47;;;-2.70;99.90;;;;;;2095350;28;20020;-67
2023/12/04 00:46:20;;;;;;;69.50;33.58;;;-2.70;99.90;;;;;;2097033;28;20035;-67
2023/12/04 00:47:21;;;;;;;65.30;31.83;;;-2.70;99.90;;;;;;2097928;28;20038;-67
2023/12/04 00:48:22;;;;;;;65.05;32.58;;;-2.70;99.90;;;;;;2091934;28;20214;-67
2023/12/04 00:49:22;;;;;;;64.38;31.60;;;-2.70;99.90;;;;;;2092072;28;20093;-67
2023/12/04 00:50:23;;;;;;;62.88;31.42;;;-2.70;99.90;;;;;;2097951;28;20532;-67
2023/12/04 00:51:23;;;;;;;61.38;31.50;;;-2.70;99.90;;;;;;2093941;28;20025;-66
2023/12/04 00:52:24;;;;;;;66.90;33.17;;;-2.70;99.90;;;;;;2095964;28;20186;-66
2023/12/04 00:53:24;;;;;;;68.18;32.88;;;-2.70;99.90;;;;;;2093763;28;20029;-67
2023/12/04 00:54:25;;;;;;;66.15;32.55;;;-2.70;99.90;;;;;;2094143;28;20028;-66
2023/12/04 00:55:26;;;;;;;62.33;31.35;;;-2.70;99.90;;;;;;2095180;28;20055;-67
2023/12/04 00:56:26;;;;;;;60.95;30.95;;;-2.70;99.90;;;;;;2097535;28;20067;-67
2023/12/04 00:57:27;;;;;;;54.67;28.00;;;-2.70;99.90;;;;;;2094369;28;20628;-67
2023/12/04 00:58:27;;;;;;;53.45;27.55;;;-2.70;99.90;;;;;;2095280;28;20950;-66
2023/12/04 00:59:28;;;;;;;53.45;27.13;;;-2.70;99.90;;;;;;2094423;28;20033;-66
2023/12/04 01:00:28;;;;;;;54.25;27.33;;;-2.70;99.90;;;;;;2094191;28;20029;-66
2023/12/04 01:01:29;;;;;;;52.38;27.08;;;-2.70;99.90;;;;;;2095302;28;20334;-67
2023/12/04 01:02:30;;;;;;;52.67;27.10;;;-2.70;99.90;;;;;;2098004;28;20028;-66
2023/12/04 01:03:32;;;;;;;54.33;27.90;;;-2.70;99.90;;;;;;2093909;28;20023;-67
2023/12/04 01:04:33;;;;;;;49.85;26.27;;;-2.70;99.90;;;;;;2095129;28;20435;-66
2023/12/04 01:05:34;;;;;;;51.40;26.23;;;-2.60;99.90;;;;;;2097638;28;20390;-66
2023/12/04 01:06:36;;;;;;;53.72;27.10;;;-2.60;99.90;;;;;;2093936;28;20053;-67
2023/12/04 01:07:36;;;;;;;46.45;24.63;;;-2.60;99.90;;;;;;2095052;28;20122;-67
2023/12/04 01:08:37;;;;;;;50.97;25.48;;;-2.60;99.90;;;;;;2095691;28;20039;-66
2023/12/04 01:09:38;;;;;;;49.65;25.90;;;-2.60;99.90;;;;;;2093150;28;20048;-66
2023/12/04 01:10:39;;;;;;;49.97;25.70;;;-2.60;99.90;;;;;;2094013;28;20558;-65
2023/12/04 01:11:40;;;;;;;46.45;24.10;;;-2.70;99.90;;;;;;2097265;28;20020;-66
2023/12/04 01:12:40;;;;;;;46.70;24.88;;;-2.60;99.90;;;;;;2088054;28;20078;-68
2023/12/04 01:13:41;;;;;;;47.67;24.63;;;-2.60;99.90;;;;;;2094199;28;20060;-65
2023/12/04 01:14:41;;;;;;;44.20;22.70;;;-2.60;99.90;;;;;;2085304;28;20143;-66
2023/12/04 01:15:42;;;;;;;44.13;23.63;;;-2.60;99.90;;;;;;2079742;28;20078;-67
2023/12/04 01:16:43;;;;;;;43.05;22.73;;;-2.60;99.90;;;;;;2087551;28;20033;-66
2023/12/04 01:17:43;;;;;;;42.28;23.05;;;-2.60;99.90;;;;;;2095757;28;20939;-65
2023/12/04 01:18:44;;;;;;;43.55;23.00;;;-2.70;99.90;;;;;;2092860;28;20089;-67
2023/12/04 01:19:44;;;;;;;42.72;22.98;;;-2.60;99.90;;;;;;2092220;28;20462;-66
2023/12/04 01:20:45;;;;;;;42.40;22.60;;;-2.70;99.90;;;;;;2093878;28;20107;-68
2023/12/04 01:21:45;;;;;;;43.47;23.52;;;-2.70;99.90;;;;;;2093439;28;20028;-66
2023/12/04 01:22:46;;;;;;;41.25;22.60;;;-2.70;99.90;;;;;;2096281;28;20040;-66
2023/12/04 01:23:46;;;;;;;42.50;22.73;;;-2.60;99.90;;;;;;2095486;28;20096;-66
2023/12/04 01:24:47;;;;;;;43.38;22.98;;;-2.60;99.90;;;;;;2093606;28;20092;-66
2023/12/04 01:25:47;;;;;;;46.95;23.55;;;-2.60;99.90;;;;;;2094709;28;20028;-66
2023/12/04 01:26:48;;;;;;;42.53;22.92;;;-2.60;99.90;;;;;;2093081;28;20434;-66
2023/12/04 01:27:49;;;;;;;40.75;22.27;;;-2.60;99.90;;;;;;2095098;28;20032;-66
2023/12/04 01:28:49;;;;;;;40.83;22.30;;;-2.60;99.90;;;;;;2089365;28;20037;-66
2023/12/04 01:29:50;;;;;;;42.85;22.15;;;-2.60;99.90;;;;;;2093597;28;20027;-66
2023/12/04 01:30:50;;;;;;;41.22;22.88;;;-2.70;99.90;;;;;;2094215;28;20032;-66
2023/12/04 01:31:51;;;;;;;39.67;21.70;;;-2.70;99.90;;;;;;2088855;28;20028;-67
2023/12/04 01:32:51;;;;;;;41.90;22.67;;;-2.80;99.90;;;;;;2097344;28;20030;-67
2023/12/04 01:33:52;;;;;;;43.90;23.08;;;-2.80;99.90;;;;;;2093808;28;20024;-67
2023/12/04 01:34:52;;;;;;;42.95;22.50;;;-2.80;99.90;;;;;;2093020;28;20077;-67
2023/12/04 01:35:53;;;;;;;39.92;22.25;;;-2.80;99.90;;;;;;2093365;28;20109;-67
2023/12/04 01:36:53;;;;;;;46.22;23.75;;;-2.80;99.90;;;;;;2095634;28;20141;-66
2023/12/04 01:37:54;;;;;;;39.83;21.98;;;-2.90;99.90;;;;;;2094244;28;20032;-67
2023/12/04 01:38:54;;;;;;;39.45;21.67;;;-2.90;99.90;;;;;;2092120;28;20151;-67
2023/12/04 01:39:55;;;;;;;43.22;23.77;;;-2.90;99.90;;;;;;2092958;28;20036;-66
2023/12/04 01:40:56;;;;;;;42.30;22.20;;;-2.90;99.90;;;;;;2097236;28;20023;-66
2023/12/04 01:41:56;;;;;;;44.70;22.50;;;-2.90;99.90;;;;;;2094573;28;20497;-68
2023/12/04 01:42:57;;;;;;;42.67;22.23;;;-2.90;99.90;;;;;;2091878;28;20020;-67
2023/12/04 01:43:57;;;;;;;43.03;22.63;;;-2.90;99.90;;;;;;2096807;28;20024;-68
2023/12/04 01:44:58;;;;;;;44.05;23.08;;;-2.90;99.90;;;;;;2094490;28;20977;-67
2023/12/04 01:46:00;;;;;;;44.85;23.05;;;-2.90;99.90;;;;;;2092834;28;20021;-66
2023/12/04 01:47:02;;;;;;;40.38;21.67;;;-2.90;99.90;;;;;;2092079;28;20078;-67
2023/12/04 01:48:04;;;;;;;41.13;22.25;;;-2.90;99.90;;;;;;2092644;28;20037;-67
2023/12/04 01:49:04;;;;;;;41.88;22.38;;;-2.90;99.90;;;;;;2092873;28;20075;-66
2023/12/04 01:50:06;;;;;;;41.78;21.92;;;-2.90;99.90;;;;;;2092577;28;20033;-67
2023/12/04 01:51:09;;;;;;;42.58;22.60;;;-3.00;99.90;;;;;;2096815;28;20043;-67
2023/12/04 01:52:11;;;;;;;42.20;22.10;;;-3.00;99.90;;;;;;2093762;28;20020;-67
2023/12/04 01:53:11;;;;;;;39.42;21.55;;;-3.00;99.90;;;;;;2081349;28;20633;-66
2023/12/04 01:54:13;;;;;;;40.00;21.95;;;-3.00;99.90;;;;;;2087846;28;20063;-66
2023/12/04 01:55:15;;;;;;;41.20;21.50;;;-3.00;99.90;;;;;;2094195;28;20053;-67
2023/12/04 01:56:17;;;;;;;40.67;22.25;;;-3.00;99.90;;;;;;2096500;28;20131;-67
2023/12/04 01:57:18;;;;;;;39.33;21.17;;;-3.00;99.90;;;;;;2095055;28;20032;-67
2023/12/04 01:58:19;;;;;;;38.80;21.50;;;-3.10;99.90;;;;;;2093792;28;20131;-67
2023/12/04 01:59:21;;;;;;;39.22;21.75;;;-3.10;99.90;;;;;;2093991;28;20032;-68
2023/12/04 02:00:22;;;;;;;41.50;21.83;;;-3.10;99.90;;;;;;2094860;28;20131;-67
2023/12/04 02:01:23;;;;;;;39.60;21.38;;;-3.00;99.90;;;;;;2093849;28;20032;-66
2023/12/04 02:02:24;;;;;;;43.75;22.17;;;-3.00;99.90;;;;;;2094477;28;20139;-67
2023/12/04 02:03:25;;;;;;;42.50;22.48;;;-3.00;99.90;;;;;;2092489;28;20028;-67
2023/12/04 02:04:25;;;;;;;41.75;22.00;;;-3.00;99.90;;;;;;2096048;28;20095;-66
2023/12/04 02:05:30;;;;;;;41.53;22.42;;;-3.00;99.90;;;;;;2092713;28;20108;-66
2023/12/04 02:06:30;;;;;;;42.42;22.05;;;-3.00;99.90;;;;;;2091445;28;20458;-67
2023/12/04 02:07:31;;;;;;;42.28;22.63;;;-3.00;99.90;;;;;;2097188;28;20253;-66
2023/12/04 02:08:32;;;;;;;41.35;22.30;;;-3.00;99.90;;;;;;2092217;28;20044;-67
2023/12/04 02:09:32;;;;;;;43.08;22.85;;;-3.00;99.90;;;;;;2094399;28;20033;-67
2023/12/04 02:10:33;;;;;;;42.53;22.42;;;-3.10;99.90;;;;;;2097030;28;20107;-67
2023/12/04 02:11:34;;;;;;;39.10;21.50;;;-3.10;99.90;;;;;;2092140;28;20033;-66
2023/12/04 02:12:35;;;;;;;40.25;21.83;;;-3.10;99.90;;;;;;2093951;28;20036;-67
2023/12/04 02:13:36;;;;;;;43.00;22.70;;;-3.10;99.90;;;;;;2096853;28;20478;-66
2023/12/04 02:14:37;;;;;;;43.38;22.85;;;-3.10;99.90;;;;;;2094002;28;20070;-66
2023/12/04 02:15:37;;;;;;;43.05;23.02;;;-3.10;99.90;;;;;;2093492;28;20033;-66
2023/12/04 02:16:41;;;;;;;49.10;24.58;;;-3.10;99.90;;;;;;2094607;28;20532;-67
2023/12/04 02:17:44;;;;;;;53.83;25.35;;;-3.00;99.90;;;;;;2091958;28;20033;-67
2023/12/04 02:18:44;;;;;;;51.10;24.77;;;-3.00;99.90;;;;;;2093141;28;20380;-66
2023/12/04 02:19:45;;;;;;;49.22;25.35;;;-3.00;99.90;;;;;;2096727;28;20024;-65
2023/12/04 02:20:46;;;;;;;50.53;25.02;;;-3.00;99.90;;;;;;2092136;28;20667;-66
2023/12/04 02:21:46;;;;;;;51.20;26.30;;;-3.00;99.90;;;;;;2093422;28;20136;-66
2023/12/04 02:22:47;;;;;;;44.97;23.60;;;-3.00;99.90;;;;;;2092386;28;20053;-66
2023/12/04 02:23:52;;;;;;;47.83;24.40;;;-3.00;99.90;;;;;;2089080;28;20032;-66
2023/12/04 02:24:52;;;;;;;49.33;25.80;;;-3.10;99.90;;;;;;2092051;28;20034;-76
2023/12/04 02:25:59;;;;;;;47.40;24.40;;;-3.10;99.90;;;;;;2094015;28;20051;-77
2023/12/04 02:27:12;;;;;;;46.38;23.73;;;-3.10;99.90;;;;;;2093184;28;20063;-73
2023/12/04 02:28:15;;;;;;;47.72;23.73;;;-3.10;99.90;;;;;;2092012;28;20421;-68
2023/12/04 02:29:32;;;;;;;47.80;23.33;;;-3.10;99.90;;;;;;2093119;28;20035;-73
2023/12/04 02:30:36;;;;;;;47.88;23.88;;;-3.10;99.90;;;;;;2086356;28;20054;-73
2023/12/04 02:31:40;;;;;;;44.08;23.45;;;-3.10;99.90;;;;;;2090123;28;20068;-70
2023/12/04 02:32:46;;;;;;;48.80;24.50;;;-3.10;99.90;;;;;;2083704;28;20041;-73
2023/12/04 02:33:52;;;;;;;48.10;24.08;;;-3.20;99.90;;;;;;2094210;28;20043;-74
2023/12/04 02:34:54;;;;;;;46.38;24.20;;;-3.20;99.90;;;;;;2089122;28;20024;-73
2023/12/04 02:35:55;;;;;;;47.88;24.58;;;-3.20;99.90;;;;;;2091118;28;20551;-75
2023/12/04 02:36:57;;;;;;;46.88;24.42;;;-3.20;99.90;;;;;;2095815;28;20522;-75
2023/12/04 02:37:59;;;;;;;49.35;25.52;;;-3.20;99.90;;;;;;2091789;28;20039;-73
2023/12/04 02:39:00;;;;;;;46.83;24.88;;;-3.20;99.90;;;;;;2090556;28;20031;-75
2023/12/04 02:40:02;;;;;;;46.55;24.35;;;-3.20;99.90;;;;;;2096021;28;20040;-74
2023/12/04 02:41:03;;;;;;;49.75;24.83;;;-3.20;99.90;;;;;;2093041;28;20500;-74
2023/12/04 02:42:04;;;;;;;46.03;24.70;;;-3.20;99.90;;;;;;2092510;28;20057;-74
2023/12/04 02:43:04;;;;;;;48.63;25.58;;;-3.20;99.90;;;;;;2091602;28;20094;-75
2023/12/04 02:44:05;;;;;;;51.10;25.63;;;-3.20;99.90;;;;;;2084953;28;20141;-74
2023/12/04 02:45:06;;;;;;;47.15;24.55;;;-3.20;99.90;;;;;;2084177;28;20071;-74
2023/12/04 02:46:07;;;;;;;47.50;24.85;;;-3.20;99.90;;;;;;2092992;28;20024;-75
2023/12/04 02:47:07;;;;;;;47.60;25.27;;;-3.20;99.90;;;;;;2095098;28;20112;-75
2023/12/04 02:48:10;;;;;;;52.38;26.25;;;-3.20;99.90;;;;;;2093027;28;20021;-74
2023/12/04 02:49:10;;;;;;;47.35;24.83;;;-3.20;99.90;;;;;;2097833;28;20025;-74
2023/12/04 02:50:11;;;;;;;49.75;25.90;;;-3.20;99.90;;;;;;2095354;28;20266;-74
2023/12/04 02:51:11;;;;;;;51.30;25.85;;;-3.20;99.90;;;;;;2093001;28;20122;-74
2023/12/04 02:52:12;;;;;;;52.85;25.67;;;-3.20;99.90;;;;;;2099497;28;20030;-75
2023/12/04 02:53:12;;;;;;;50.58;26.45;;;-3.20;99.90;;;;;;2097059;28;20039;-73
2023/12/04 02:54:13;;;;;;;51.53;25.85;;;-3.20;99.90;;;;;;2092628;28;20070;-72
2023/12/04 02:55:13;;;;;;;52.42;27.40;;;-3.20;99.90;;;;;;2094467;28;20477;-73
2023/12/04 02:56:14;;;;;;;48.88;25.65;;;-3.20;99.90;;;;;;2097078;28;20432;-74
2023/12/04 02:57:15;;;;;;;51.35;26.95;;;-3.10;99.90;;;;;;2097428;28;20036;-74
2023/12/04 02:58:15;;;;;;;50.65;25.83;;;-3.10;99.90;;;;;;2098010;28;20382;-74
2023/12/04 02:59:16;;;;;;;50.83;26.55;;;-3.10;99.90;;;;;;2096819;28;20024;-73
2023/12/04 03:00:17;;;;;;;53.08;27.08;;;-3.10;99.90;;;;;;2097197;28;20135;-73
2023/12/04 03:01:17;;;;;;;51.15;26.13;;;-3.20;99.90;;;;;;2095958;28;20157;-73
2023/12/04 03:02:18;;;;;;;53.67;26.42;;;-3.20;99.90;;;;;;2095942;28;20056;-73
2023/12/04 03:03:18;;;;;;;48.10;25.73;;;-3.10;99.90;;;;;;2096634;28;20206;-73
2023/12/04 03:04:19;;;;;;;53.00;26.98;;;-3.10;99.90;;;;;;2098281;28;20093;-73
2023/12/04 03:05:20;;;;;;;50.95;26.73;;;-3.10;99.90;;;;;;2098954;28;20138;-73
2023/12/04 03:06:21;;;;;;;51.40;26.35;;;-3.10;99.90;;;;;;2096507;28;20475;-74
2023/12/04 03:07:23;;;;;;;49.78;26.13;;;-3.20;99.90;;;;;;2097149;28;20028;-74
2023/12/04 03:08:24;;;;;;;52.05;26.20;;;-3.20;99.90;;;;;;2090229;28;20037;-74
2023/12/04 03:09:24;;;;;;;51.13;26.17;;;-3.20;99.90;;;;;;2089114;28;20509;-74
2023/12/04 03:10:25;;;;;;;51.15;26.25;;;-3.20;99.90;;;;;;2094408;28;20510;-74
2023/12/04 03:11:25;;;;;;;51.38;26.30;;;-3.20;99.90;;;;;;2096328;28;20032;-74
2023/12/04 03:12:26;;;;;;;51.22;25.52;;;-3.20;99.90;;;;;;2098516;28;20288;-74
2023/12/04 03:13:26;;;;;;;51.28;27.15;;;-3.20;99.90;;;;;;2095770;28;20039;-74
2023/12/04 03:14:27;;;;;;;47.15;25.20;;;-3.20;99.90;;;;;;2097178;28;20032;-74
2023/12/04 03:15:28;;;;;;;47.95;26.42;;;-3.20;99.90;;;;;;2098862;28;20032;-74
2023/12/04 03:16:29;;;;;;;50.42;26.92;;;-3.20;99.90;;;;;;2095231;28;20454;-74
2023/12/04 03:17:30;;;;;;;50.60;26.23;;;-3.20;99.90;;;;;;2096576;28;20335;-74
2023/12/04 03:18:30;;;;;;;50.08;25.20;;;-3.20;99.90;;;;;;2097551;28;20468;-73
2023/12/04 03:19:31;;;;;;;48.35;25.23;;;-3.10;99.90;;;;;;2094706;28;20115;-74
2023/12/04 03:20:32;;;;;;;51.25;25.55;;;-3.20;99.90;;;;;;2096480;28;20055;-73
2023/12/04 03:21:33;;;;;;;51.83;26.23;;;-3.20;99.90;;;;;;2096394;28;20478;-73
2023/12/04 03:22:35;;;;;;;47.97;25.77;;;-3.10;99.90;;;;;;2098102;28;22891;-73
2023/12/04 03:23:36;;;;;;;52.47;26.70;;;-3.10;99.90;;;;;;2094688;28;20035;-73
2023/12/04 03:24:36;;;;;;;47.92;24.73;;;-3.10;99.90;;;;;;2096210;28;20385;-74
2023/12/04 03:25:37;;;;;;;51.60;26.73;;;-3.10;99.90;;;;;;2099378;28;20024;-73
2023/12/04 03:26:37;;;;;;;50.17;25.80;;;-3.10;99.90;;;;;;2095868;28;20024;-74
2023/12/04 03:27:38;;;;;;;51.30;26.05;;;-3.10;99.90;;;;;;2095909;28;20016;-74
2023/12/04 03:28:39;;;;;;;52.15;26.63;;;-3.10;99.90;;;;;;2096113;28;20036;-74
2023/12/04 03:29:40;;;;;;;52.95;26.65;;;-3.10;99.90;;;;;;2098341;28;20020;-73
2023/12/04 03:30:45;;;;;;;49.58;25.40;;;-3.10;99.90;;;;;;2094455;28;20035;-72
2023/12/04 03:31:45;;;;;;;50.58;25.65;;;-3.10;99.90;;;;;;2092947;28;20099;-72
2023/12/04 03:32:46;;;;;;;48.28;25.08;;;-3.10;99.90;;;;;;2094921;28;20109;-73
2023/12/04 03:33:46;;;;;;;50.60;26.35;;;-3.10;99.90;;;;;;2095400;28;20080;-73
2023/12/04 03:34:47;;;;;;;49.45;25.05;;;-3.10;99.90;;;;;;2095326;28;20023;-73
2023/12/04 03:35:47;;;;;;;50.35;25.92;;;-3.10;99.90;;;;;;2098036;28;20027;-73
2023/12/04 03:36:48;;;;;;;48.78;25.35;;;-3.10;99.90;;;;;;2096164;28;20028;-73
2023/12/04 03:37:49;;;;;;;48.20;25.40;;;-3.10;99.90;;;;;;2091011;28;20030;-73
2023/12/04 03:38:50;;;;;;;50.60;25.83;;;-3.10;99.90;;;;;;2094318;28;20497;-75
2023/12/04 03:39:51;;;;;;;48.05;25.55;;;-3.10;99.90;;;;;;2095155;28;20023;-74
2023/12/04 03:40:51;;;;;;;48.05;26.10;;;-3.10;99.90;;;;;;2079698;28;20044;-74
2023/12/04 03:41:52;;;;;;;50.80;26.27;;;-3.10;99.90;;;;;;2079240;28;20097;-74
2023/12/04 03:42:52;;;;;;;48.88;25.73;;;-3.10;99.90;;;;;;2092386;28;20017;-75
2023/12/04 03:43:53;;;;;;;50.42;26.10;;;-3.20;99.90;;;;;;2097825;28;20089;-74
2023/12/04 03:44:53;;;;;;;48.30;25.60;;;-3.20;99.90;;;;;;2096536;28;20546;-74
2023/12/04 03:45:54;;;;;;;51.28;26.33;;;-3.10;99.90;;;;;;2090877;28;20032;-74
2023/12/04 03:46:54;;;;;;;52.05;26.73;;;-3.10;99.90;;;;;;2085428;28;20109;-74
2023/12/04 03:47:55;;;;;;;51.53;26.70;;;-3.10;99.90;;;;;;2098437;28;20031;-74
2023/12/04 03:48:55;;;;;;;53.33;26.52;;;-3.20;99.90;;;;;;2094117;28;20398;-74
2023/12/04 03:49:56;;;;;;;51.03;26.15;;;-3.20;99.90;;;;;;2086674;28;20177;-74
2023/12/04 03:50:56;;;;;;;50.72;26.20;;;-3.20;99.90;;;;;;2085822;28;20025;-74
2023/12/04 03:51:57;;;;;;;54.88;26.13;;;-3.20;99.90;;;;;;2093844;28;20020;-74
2023/12/04 03:52:58;;;;;;;51.55;25.75;;;-3.20;99.90;;;;;;2092226;28;20043;-74
2023/12/04 03:53:58;;;;;;;53.20;26.05;;;-3.20;99.90;;;;;;2095260;28;20136;-74
2023/12/04 03:54:59;;;;;;;51.10;26.25;;;-3.30;99.90;;;;;;2098049;28;20020;-74
2023/12/04 03:55:59;;;;;;;52.25;25.88;;;-3.30;99.90;;;;;;2095170;28;20027;-74
2023/12/04 03:57:00;;;;;;;50.22;26.38;;;-3.30;99.90;;;;;;2089064;28;20173;-73
2023/12/04 03:58:00;;;;;;;54.30;26.77;;;-3.30;99.90;;;;;;2087813;28;20021;-76
2023/12/04 03:59:01;;;;;;;51.30;26.60;;;-3.20;99.90;;;;;;2093858;28;20023;-73
2023/12/04 04:00:01;;;;;;;50.83;26.23;;;-3.20;99.90;;;;;;2087918;28;20039;-75
2023/12/04 04:01:12;;;;;;;51.00;25.83;;;-3.20;99.90;;;;;;2086818;28;20037;-74
2023/12/04 04:02:12;;;;;;;50.08;25.77;;;-3.20;99.90;;;;;;2092859;28;20013;-75
2023/12/04 04:03:13;;;;;;;53.28;26.02;;;-3.20;99.90;;;;;;2090756;28;20111;-74
2023/12/04 04:04:13;;;;;;;52.83;26.60;;;-3.20;99.90;;;;;;2087751;28;20026;-74
2023/12/04 04:05:14;;;;;;;52.00;26.95;;;-3.20;99.90;;;;;;2087339;28;20349;-74
2023/12/04 04:06:15;;;;;;;50.17;25.67;;;-3.20;99.90;;;;;;2097209;28;20032;-74
2023/12/04 04:07:18;;;;;;;53.63;26.23;;;-3.20;99.90;;;;;;2083451;28;20142;-74
2023/12/04 04:08:19;;;;;;;51.10;26.77;;;-3.30;99.90;;;;;;2083311;28;20065;-74
2023/12/04 04:09:20;;;;;;;52.75;26.17;;;-3.20;99.90;;;;;;2089185;28;20090;-74
2023/12/04 04:10:20;;;;;;;51.67;27.15;;;-3.30;99.90;;;;;;2089791;28;20292;-74
2023/12/04 04:11:21;;;;;;;54.40;27.52;;;-3.30;99.90;;;;;;2091118;28;20037;-74
2023/12/04 04:12:21;;;;;;;52.10;26.63;;;-3.30;99.90;;;;;;2092204;28;20040;-75
2023/12/04 04:13:22;;;;;;;54.60;26.83;;;-3.30;99.90;;;;;;2087841;28;20037;-74
2023/12/04 04:14:24;;;;;;;54.58;27.55;;;-3.40;99.90;;;;;;2090767;28;20029;-74
2023/12/04 04:15:25;;;;;;;55.42;28.05;;;-3.30;99.90;;;;;;2091802;28;20403;-74
2023/12/04 04:16:26;;;;;;;54.65;27.77;;;-3.30;99.90;;;;;;2093123;28;20131;-74
2023/12/04 04:17:27;;;;;;;55.97;27.77;;;-3.30;99.90;;;;;;2097927;28;20036;-74
2023/12/04 04:18:27;;;;;;;54.60;27.92;;;-3.30;99.90;;;;;;2096078;28;20042;-74
2023/12/04 04:19:28;;;;;;;56.55;28.23;;;-3.30;99.90;;;;;;2095426;28;20032;-72
2023/12/04 04:20:28;;;;;;;53.55;27.70;;;-3.30;99.90;;;;;;2095233;28;20048;-73
2023/12/04 04:21:29;;;;;;;53.88;27.17;;;-3.30;99.90;;;;;;2095718;28;20388;-74
2023/12/04 04:22:29;;;;;;;52.05;26.90;;;-3.30;99.90;;;;;;2095028;28;20047;-74
2023/12/04 04:23:30;;;;;;;49.40;26.13;;;-3.40;99.90;;;;;;2096259;28;20042;-74
2023/12/04 04:24:30;;;;;;;53.75;27.95;;;-3.40;99.90;;;;;;2094430;28;20028;-74
2023/12/04 04:25:31;;;;;;;54.47;28.02;;;-3.40;99.90;;;;;;2094442;28;20056;-74
2023/12/04 04:26:31;;;;;;;58.97;28.65;;;-3.40;99.90;;;;;;2094335;28;20036;-74
2023/12/04 04:27:32;;;;;;;57.50;27.55;;;-3.40;99.90;;;;;;2094047;28;20224;-74
2023/12/04 04:28:32;;;;;;;58.10;28.95;;;-3.40;99.90;;;;;;2094350;28;20031;-73
2023/12/04 04:29:33;;;;;;;55.63;27.77;;;-3.40;99.90;;;;;;2087625;28;20060;-73
2023/12/04 04:30:34;;;;;;;58.42;28.20;;;-3.40;99.90;;;;;;2092472;28;20028;-72
2023/12/04 04:31:34;;;;;;;53.33;28.15;;;-3.40;99.90;;;;;;2087008;28;20177;-73
2023/12/04 04:32:35;;;;;;;55.20;27.52;;;-3.40;99.90;;;;;;2087953;28;20082;-73
2023/12/04 04:33:35;;;;;;;53.95;27.60;;;-3.40;99.90;;;;;;2093841;28;20032;-73
2023/12/04 04:34:36;;;;;;;60.60;29.13;;;-3.50;99.90;;;;;;2091288;28;20482;-72
2023/12/04 04:35:37;;;;;;;60.10;29.35;;;-3.40;99.90;;;;;;2094162;28;20043;-73
2023/12/04 04:36:37;;;;;;;56.08;28.90;;;-3.40;99.90;;;;;;2088708;28;20074;-73
2023/12/04 04:37:38;;;;;;;57.88;28.27;;;-3.40;99.90;;;;;;2098185;28;20036;-72
2023/12/04 04:38:40;;;;;;;58.42;28.83;;;-3.50;99.90;;;;;;2092692;28;20047;-73
2023/12/04 04:39:40;;;;;;;57.08;28.67;;;-3.50;99.90;;;;;;2095161;28;20115;-73
2023/12/04 04:40:43;;;;;;;57.17;29.00;;;-3.50;99.90;;;;;;2092121;28;20024;-73
2023/12/04 04:41:44;;;;;;;62.45;29.40;;;-3.50;99.90;;;;;;2093650;28;20087;-74
2023/12/04 04:42:46;;;;;;;104.25;35.65;;;-3.50;99.90;;;;;;2095301;28;20223;-73
2023/12/04 04:43:46;;;;;;;83.93;33.13;;;-3.60;99.90;;;;;;2097046;28;20423;-73
2023/12/04 04:44:47;;;;;;;82.18;31.52;;;-3.60;99.90;;;;;;2093889;28;20151;-73
2023/12/04 04:45:47;;;;;;;73.75;30.42;;;-3.60;99.90;;;;;;2085965;28;20099;-73
2023/12/04 04:46:48;;;;;;;85.30;32.17;;;-3.60;99.90;;;;;;2088576;28;20055;-73
2023/12/04 04:47:48;;;;;;;73.30;30.48;;;-3.60;99.90;;;;;;2083430;28;20033;-73
2023/12/04 04:48:49;;;;;;;71.82;30.27;;;-3.70;99.90;;;;;;2085532;28;20041;-72
2023/12/04 04:49:50;;;;;;;66.05;29.58;;;-3.70;99.90;;;;;;2097757;28;20028;-73
2023/12/04 04:50:50;;;;;;;64.93;28.85;;;-3.70;99.90;;;;;;2093177;28;20033;-73
2023/12/04 04:51:51;;;;;;;65.25;29.60;;;-3.70;99.90;;;;;;2094812;28;20033;-72
2023/12/04 04:52:51;;;;;;;66.90;29.50;;;-3.80;99.90;;;;;;2098751;28;20020;-73
2023/12/04 04:53:52;;;;;;;68.32;29.42;;;-3.80;99.90;;;;;;2093187;28;20032;-73
2023/12/04 04:54:52;;;;;;;76.32;30.75;;;-3.80;99.90;;;;;;2094749;28;20314;-73
2023/12/04 04:55:53;;;;;;;83.03;31.23;;;-3.80;99.90;;;;;;2095446;28;20024;-73
2023/12/04 04:56:54;;;;;;;68.78;30.23;;;-3.80;99.90;;;;;;2093020;28;20025;-72
2023/12/04 04:57:55;;;;;;;74.70;30.60;;;-3.80;99.90;;;;;;2085593;28;20136;-72
2023/12/04 04:58:55;;;;;;;60.97;29.42;;;-3.90;99.90;;;;;;2089089;28;20056;-73
2023/12/04 04:59:56;;;;;;;59.95;28.75;;;-3.90;99.90;;;;;;2082717;28;20024;-73
2023/12/04 05:00:56;;;;;;;62.33;30.65;;;-3.90;99.90;;;;;;2087437;28;20398;-73
2023/12/04 05:01:57;;;;;;;56.78;29.08;;;-3.90;99.90;;;;;;2094291;28;20021;-73
2023/12/04 05:02:58;;;;;;;61.50;29.45;;;-3.80;99.90;;;;;;2096869;28;20059;-75
2023/12/04 05:03:58;;;;;;;59.40;29.23;;;-3.80;99.90;;;;;;2093377;28;20045;-73
2023/12/04 05:05:02;;;;;;;59.10;29.25;;;-3.80;99.90;;;;;;2093597;28;20079;-73
2023/12/04 05:06:03;;;;;;;61.03;30.15;;;-3.80;99.90;;;;;;2093670;28;20062;-73
2023/12/04 05:07:04;;;;;;;58.20;28.98;;;-3.80;99.90;;;;;;2093761;28;20508;-73
2023/12/04 05:08:04;;;;;;;59.88;29.80;;;-3.70;99.90;;;;;;2092606;28;20115;-73
2023/12/04 05:09:05;;;;;;;58.63;29.08;;;-3.70;99.90;;;;;;2096531;28;20020;-73